Time;durP1;ratioP1;P1;durP2;ratioP2;P2;SDS_P1;SDS_P2;PMS_P1;PMS_P2;Temp;Humidity;BMP_temperature;BMP_pressure;BME280_temperature;BME280_humidity;BME280_pressure;Samples;Min_cycle;Max_cycle;Signal;HPM_P1;HPM_P2
2023/05/08 00:00:27;;;;;;;14.90;13.47;;;15.00;99.90;;;;;;5114477;28;20186;-50
2023/05/08 00:02:53;;;;;;;17.97;15.03;;;15.00;99.90;;;;;;5114567;28;20198;-50
2023/05/08 00:05:18;;;;;;;14.40;12.87;;;15.00;99.90;;;;;;5114361;28;20170;-50
2023/05/08 00:07:44;;;;;;;15.83;13.00;;;15.00;99.90;;;;;;5114971;28;20239;-49
2023/05/08 00:10:11;;;;;;;15.63;13.93;;;15.00;99.90;;;;;;5114671;28;20263;-51
2023/05/08 00:12:37;;;;;;;15.80;14.03;;;15.00;99.90;;;;;;5114456;28;20198;-51
2023/05/08 00:15:03;;;;;;;15.50;13.83;;;14.90;99.90;;;;;;5114110;28;20185;-52
2023/05/08 00:17:29;;;;;;;16.37;14.57;;;14.90;99.90;;;;;;5114040;27;20251;-51
2023/05/08 00:19:55;;;;;;;14.80;13.23;;;14.90;99.90;;;;;;5113959;28;20174;-52
2023/05/08 00:22:21;;;;;;;18.17;13.83;;;14.90;99.90;;;;;;5114221;28;20335;-51
2023/05/08 00:24:46;;;;;;;13.70;12.07;;;14.80;99.90;;;;;;5113947;28;20211;-52
2023/05/08 00:27:12;;;;;;;17.20;13.53;;;14.80;99.90;;;;;;5113901;28;20186;-53
2023/05/08 00:29:41;;;;;;;12.90;11.60;;;14.80;99.90;;;;;;5113794;28;20182;-50
2023/05/08 00:32:07;;;;;;;13.60;10.33;;;14.80;99.90;;;;;;5114204;28;20184;-50
2023/05/08 00:34:33;;;;;;;10.87;9.23;;;14.80;99.90;;;;;;5113786;28;20638;-50
2023/05/08 00:36:59;;;;;;;11.77;9.43;;;14.70;99.90;;;;;;5113644;28;20218;-51
2023/05/08 00:39:24;;;;;;;10.80;8.90;;;14.70;99.90;;;;;;5114027;28;20184;-45
2023/05/08 00:41:50;;;;;;;11.40;10.20;;;14.70;99.90;;;;;;5113575;28;20179;-46
2023/05/08 00:44:16;;;;;;;12.10;10.90;;;14.60;99.90;;;;;;5113742;28;20244;-45
2023/05/08 00:46:43;;;;;;;12.20;10.87;;;14.60;99.90;;;;;;5113648;28;20665;-46
2023/05/08 00:49:12;;;;;;;14.33;11.47;;;14.60;99.90;;;;;;5113883;28;20186;-47
2023/05/08 00:51:38;;;;;;;13.83;9.27;;;14.50;99.90;;;;;;5113691;28;20618;-44
2023/05/08 00:54:04;;;;;;;10.70;9.10;;;14.50;99.90;;;;;;5113519;28;20213;-43
2023/05/08 00:56:32;;;;;;;9.60;8.60;;;14.40;99.90;;;;;;5113830;28;20210;-45
2023/05/08 00:58:58;;;;;;;10.03;8.37;;;14.40;99.90;;;;;;5113893;28;20183;-46
2023/05/08 01:01:24;;;;;;;10.17;9.17;;;14.40;99.90;;;;;;5114106;28;20163;-45
2023/05/08 01:03:49;;;;;;;14.93;9.93;;;14.30;99.90;;;;;;5113392;28;20205;-46
2023/05/08 01:06:15;;;;;;;10.20;9.20;;;14.30;99.90;;;;;;5113662;28;20185;-46
2023/05/08 01:08:44;;;;;;;12.53;10.10;;;14.30;99.90;;;;;;5113734;28;20291;-45
2023/05/08 01:11:27;;;;;;;11.20;9.67;;;14.20;99.90;;;;;;5113758;28;20640;-44
2023/05/08 01:13:55;;;;;;;10.20;8.37;;;14.20;99.90;;;;;;5113697;28;20205;-51
2023/05/08 01:16:43;;;;;;;10.33;9.33;;;14.20;99.90;;;;;;5112052;28;20288;-51
2023/05/08 01:19:23;;;;;;;10.17;9.13;;;14.10;99.90;;;;;;5113442;28;20227;-50
2023/05/08 01:21:55;;;;;;;12.43;9.70;;;14.10;99.90;;;;;;5113300;28;20182;-51
2023/05/08 01:24:59;;;;;;;10.37;9.37;;;14.10;99.90;;;;;;5113569;28;20171;-50
2023/05/08 01:27:34;;;;;;;11.37;10.03;;;14.10;99.90;;;;;;5113282;28;20618;-51
2023/05/08 01:30:30;;;;;;;12.13;9.80;;;14.00;99.90;;;;;;5113613;28;20618;-51
2023/05/08 01:33:01;;;;;;;13.57;11.93;;;14.10;99.90;;;;;;5113191;28;20206;-51
2023/05/08 01:35:38;;;;;;;15.13;11.63;;;14.10;99.90;;;;;;5113899;28;20162;-51
2023/05/08 01:38:26;;;;;;;14.87;12.57;;;14.00;99.90;;;;;;5113151;28;20569;-51
2023/05/08 01:41:00;;;;;;;12.37;11.03;;;14.00;99.90;;;;;;5113460;28;20253;-51
2023/05/08 01:44:05;;;;;;;12.57;11.27;;;14.00;99.90;;;;;;5113285;28;20228;-53
2023/05/08 01:46:33;;;;;;;13.03;9.93;;;14.00;99.90;;;;;;5114919;28;20274;-48
2023/05/08 01:49:08;;;;;;;18.37;11.47;;;14.10;99.90;;;;;;5117156;28;20224;-46
2023/05/08 01:51:44;;;;;;;19.33;13.03;;;14.10;99.90;;;;;;5117505;28;20165;-47
2023/05/08 01:54:14;;;;;;;13.87;11.30;;;14.10;99.90;;;;;;5116845;28;20690;-45
2023/05/08 01:56:43;;;;;;;25.93;13.50;;;14.10;99.90;;;;;;5117277;28;20247;-46
2023/05/08 01:59:11;;;;;;;21.83;14.50;;;14.10;99.90;;;;;;5116946;27;20201;-47
2023/05/08 02:01:39;;;;;;;19.70;13.80;;;14.10;99.90;;;;;;5116634;28;20670;-47
2023/05/08 02:04:07;;;;;;;17.13;12.77;;;14.10;99.90;;;;;;5116621;28;20204;-47
2023/05/08 02:06:34;;;;;;;23.03;12.33;;;14.10;99.90;;;;;;5116965;28;20194;-46
2023/05/08 02:09:01;;;;;;;14.37;11.93;;;14.10;99.90;;;;;;5117019;28;20287;-46
2023/05/08 02:11:27;;;;;;;18.03;12.50;;;14.10;99.90;;;;;;5116952;28;20185;-47
2023/05/08 02:13:54;;;;;;;15.60;11.87;;;14.10;99.90;;;;;;5116792;28;20209;-46
2023/05/08 02:16:20;;;;;;;14.87;11.57;;;14.10;99.90;;;;;;5117196;28;20174;-45
2023/05/08 02:18:50;;;;;;;12.20;10.23;;;14.10;99.90;;;;;;5118970;28;20202;-46
2023/05/08 02:21:17;;;;;;;14.90;10.80;;;14.10;99.90;;;;;;5123137;28;20170;-46
2023/05/08 02:23:45;;;;;;;13.67;10.63;;;14.10;99.90;;;;;;5126596;27;20198;-47
2023/05/08 02:26:14;;;;;;;12.80;11.13;;;14.10;99.90;;;;;;5120981;28;20178;-46
2023/05/08 02:28:40;;;;;;;16.07;11.57;;;14.10;99.90;;;;;;5115961;28;20182;-46
2023/05/08 02:31:10;;;;;;;14.40;11.93;;;14.20;99.90;;;;;;5116795;28;20182;-46
2023/05/08 02:33:40;;;;;;;14.53;12.10;;;14.20;99.90;;;;;;5117466;28;20227;-47
2023/05/08 02:36:07;;;;;;;13.40;11.97;;;14.20;99.90;;;;;;5116311;28;20215;-46
2023/05/08 02:38:36;;;;;;;14.20;12.63;;;14.30;99.90;;;;;;5116207;28;20657;-46
2023/05/08 02:41:04;;;;;;;18.57;13.37;;;14.20;99.90;;;;;;5115979;28;20665;-46
2023/05/08 02:43:30;;;;;;;20.07;13.83;;;14.30;99.90;;;;;;5115883;28;20207;-47
2023/05/08 02:46:13;;;;;;;27.73;15.97;;;14.30;99.90;;;;;;5115769;28;20261;-46
2023/05/08 02:49:06;;;;;;;23.23;16.43;;;14.30;99.90;;;;;;5115949;28;20170;-47
2023/05/08 02:51:50;;;;;;;23.27;16.23;;;14.30;99.90;;;;;;5116128;28;20239;-46
2023/05/08 02:54:30;;;;;;;33.63;17.33;;;14.30;99.90;;;;;;5116303;28;20196;-47
2023/05/08 02:57:00;;;;;;;26.07;16.73;;;14.30;99.90;;;;;;5115897;28;20251;-46
2023/05/08 03:00:06;;;;;;;26.90;15.77;;;14.30;99.90;;;;;;5115597;28;20186;-46
2023/05/08 03:02:56;;;;;;;23.57;15.57;;;14.30;99.90;;;;;;5075093;28;20280;-46
2023/05/08 03:05:29;;;;;;;25.73;15.40;;;14.30;99.90;;;;;;5115961;28;20636;-46
2023/05/08 03:07:58;;;;;;;26.13;16.90;;;14.30;99.90;;;;;;5114593;28;20535;-46
2023/05/08 03:10:30;;;;;;;21.97;16.50;;;14.30;99.90;;;;;;5115487;27;20174;-46
2023/05/08 03:12:57;;;;;;;26.13;17.57;;;14.20;99.90;;;;;;5115722;28;20202;-45
2023/05/08 03:15:27;;;;;;;21.37;16.10;;;14.20;99.90;;;;;;5115372;28;20197;-46
2023/05/08 03:18:01;;;;;;;24.30;15.93;;;14.20;99.90;;;;;;5115482;28;20258;-45
2023/05/08 03:20:32;;;;;;;22.23;16.30;;;14.20;99.90;;;;;;5115662;28;20168;-47
2023/05/08 03:22:59;;;;;;;23.37;17.40;;;14.20;99.90;;;;;;5115527;28;20240;-48
2023/05/08 03:25:26;;;;;;;20.33;16.07;;;14.10;99.90;;;;;;5115265;28;20231;-46
2023/05/08 03:27:52;;;;;;;21.73;16.53;;;14.10;99.90;;;;;;5115210;28;20652;-46
2023/05/08 03:30:19;;;;;;;21.23;15.83;;;14.10;99.90;;;;;;5115346;28;20193;-46
2023/05/08 03:32:45;;;;;;;22.07;17.50;;;14.10;99.90;;;;;;5115060;28;20210;-46
2023/05/08 03:35:13;;;;;;;21.63;16.67;;;14.10;99.90;;;;;;5115093;28;20190;-51
2023/05/08 03:37:39;;;;;;;23.23;16.10;;;14.10;99.90;;;;;;5114503;28;20222;-50
2023/05/08 03:40:10;;;;;;;20.90;15.83;;;14.10;99.90;;;;;;5114709;28;20166;-52
2023/05/08 03:42:37;;;;;;;18.70;15.43;;;14.10;99.90;;;;;;5114893;28;20251;-50
2023/05/08 03:45:03;;;;;;;17.93;14.97;;;14.00;99.90;;;;;;5115150;28;20183;-50
2023/05/08 03:47:30;;;;;;;23.83;16.80;;;14.00;99.90;;;;;;5114582;28;20259;-52
2023/05/08 03:49:56;;;;;;;19.20;15.00;;;14.00;99.90;;;;;;5113244;28;20270;-51
2023/05/08 03:52:23;;;;;;;15.93;14.23;;;14.00;99.90;;;;;;5114389;28;20202;-51
2023/05/08 03:54:49;;;;;;;15.80;13.33;;;13.90;99.90;;;;;;5114732;28;20260;-51
2023/05/08 03:57:14;;;;;;;17.80;13.90;;;13.90;99.90;;;;;;5114394;28;20231;-51
2023/05/08 03:59:51;;;;;;;16.57;13.17;;;13.90;99.90;;;;;;5114306;28;20592;-51
2023/05/08 04:02:37;;;;;;;14.53;12.87;;;13.90;99.90;;;;;;5114548;28;20593;-51
2023/05/08 04:05:47;;;;;;;16.87;13.43;;;13.80;99.90;;;;;;5114587;28;20218;-50
2023/05/08 04:08:21;;;;;;;12.90;11.60;;;13.80;99.90;;;;;;5082216;27;20196;-50
2023/05/08 04:11:08;;;;;;;14.83;12.17;;;13.80;99.90;;;;;;5114519;28;20170;-51
2023/05/08 04:13:42;;;;;;;14.63;12.93;;;13.70;99.90;;;;;;5113678;28;20251;-52
2023/05/08 04:16:21;;;;;;;15.50;13.33;;;13.70;99.90;;;;;;5114241;28;20670;-51
2023/05/08 04:18:49;;;;;;;16.47;13.93;;;13.80;99.90;;;;;;5113184;28;20168;-51
2023/05/08 04:21:21;;;;;;;15.50;12.67;;;13.80;99.90;;;;;;5114285;28;20170;-52
2023/05/08 04:23:50;;;;;;;15.87;12.93;;;13.70;99.90;;;;;;5114833;28;20202;-50
2023/05/08 04:26:17;;;;;;;17.23;13.10;;;13.80;99.90;;;;;;5113992;28;20512;-50
2023/05/08 04:28:45;;;;;;;14.27;12.40;;;13.80;99.90;;;;;;5113942;28;20177;-51
2023/05/08 04:31:12;;;;;;;14.70;12.83;;;13.80;99.90;;;;;;5113952;28;20289;-52
2023/05/08 04:33:38;;;;;;;13.73;12.33;;;13.80;99.90;;;;;;5114299;28;20200;-51
2023/05/08 04:36:04;;;;;;;14.40;12.90;;;13.90;99.90;;;;;;5113763;28;20554;-52
2023/05/08 04:38:30;;;;;;;13.53;12.13;;;13.90;99.90;;;;;;5113704;28;20662;-50
2023/05/08 04:40:55;;;;;;;15.00;12.63;;;13.90;99.90;;;;;;5112509;28;20170;-50
2023/05/08 04:43:21;;;;;;;15.53;12.00;;;13.90;99.90;;;;;;5113887;28;20221;-52
2023/05/08 04:45:47;;;;;;;13.60;12.20;;;13.90;99.90;;;;;;5113727;28;20215;-51
2023/05/08 04:48:12;;;;;;;14.53;12.90;;;13.90;99.90;;;;;;5114029;28;20568;-50
2023/05/08 04:50:38;;;;;;;14.40;11.77;;;14.00;99.90;;;;;;5114271;28;20182;-50
2023/05/08 04:53:03;;;;;;;14.73;13.00;;;14.00;99.90;;;;;;5113614;28;20246;-52
2023/05/08 04:55:29;;;;;;;15.57;13.27;;;14.10;99.90;;;;;;5113970;28;20221;-51
2023/05/08 04:57:55;;;;;;;16.03;13.63;;;14.10;99.90;;;;;;5112192;28;20574;-51
2023/05/08 05:00:20;;;;;;;16.60;13.63;;;14.20;99.90;;;;;;5113580;28;20166;-52
2023/05/08 05:02:46;;;;;;;20.20;15.40;;;14.20;99.90;;;;;;5113472;28;20196;-49
2023/05/08 05:05:11;;;;;;;26.17;18.77;;;14.30;99.90;;;;;;5114102;28;20166;-52
2023/05/08 05:07:37;;;;;;;30.30;16.93;;;14.40;99.90;;;;;;5113573;28;20206;-53
2023/05/08 05:10:03;;;;;;;21.93;17.57;;;14.40;99.90;;;;;;5113828;28;20178;-53
2023/05/08 05:12:28;;;;;;;31.63;18.13;;;14.40;99.90;;;;;;5113608;28;20202;-52
2023/05/08 05:14:54;;;;;;;37.87;15.83;;;14.50;99.90;;;;;;5112155;28;20178;-50
2023/05/08 05:17:20;;;;;;;23.60;13.23;;;14.50;99.90;;;;;;5113412;28;20198;-51
2023/05/08 05:19:46;;;;;;;21.63;12.90;;;14.40;99.90;;;;;;5115564;28;20175;-51
2023/05/08 05:22:11;;;;;;;22.67;11.83;;;14.40;99.90;;;;;;5117602;28;20190;-52
2023/05/08 05:24:38;;;;;;;17.57;11.17;;;14.40;99.90;;;;;;5118104;28;20216;-50
2023/05/08 05:27:04;;;;;;;13.80;11.30;;;14.40;99.90;;;;;;5116479;28;20692;-51
2023/05/08 05:29:30;;;;;;;15.20;11.43;;;14.50;99.90;;;;;;5118459;28;20178;-52
2023/05/08 05:31:55;;;;;;;15.43;11.77;;;14.50;99.90;;;;;;5117698;28;20201;-52
2023/05/08 05:34:21;;;;;;;13.63;11.03;;;14.50;99.90;;;;;;5117338;28;20606;-51
2023/05/08 05:36:47;;;;;;;12.13;10.93;;;14.50;99.90;;;;;;5116975;28;20578;-50
2023/05/08 05:39:12;;;;;;;13.17;10.77;;;14.50;99.90;;;;;;5117101;28;20182;-50
2023/05/08 05:41:38;;;;;;;13.50;11.43;;;14.60;99.90;;;;;;5117044;28;20177;-50
2023/05/08 05:44:04;;;;;;;12.37;11.07;;;14.70;99.90;;;;;;5117190;28;20193;-51
2023/05/08 05:46:31;;;;;;;13.60;11.10;;;14.80;99.90;;;;;;5119130;28;20221;-50
2023/05/08 05:49:00;;;;;;;13.93;12.43;;;14.80;99.90;;;;;;5126622;28;20201;-50
2023/05/08 05:51:26;;;;;;;13.33;11.77;;;15.00;99.90;;;;;;5125244;28;20257;-49
2023/05/08 05:53:52;;;;;;;13.87;12.37;;;15.20;99.90;;;;;;5118084;28;20198;-50
2023/05/08 05:56:18;;;;;;;15.07;13.27;;;15.40;99.90;;;;;;5117068;28;20197;-52
2023/05/08 05:58:44;;;;;;;14.27;12.77;;;15.70;99.90;;;;;;5116647;27;20283;-51
2023/05/08 06:01:10;;;;;;;13.17;10.87;;;15.80;99.90;;;;;;5116970;28;20204;-50
2023/05/08 06:03:36;;;;;;;12.73;11.37;;;15.90;99.90;;;;;;5116877;28;20204;-50
2023/05/08 06:06:02;;;;;;;12.30;10.97;;;16.00;99.90;;;;;;5117188;28;20257;-50
2023/05/08 06:08:28;;;;;;;12.43;11.13;;;15.90;99.90;;;;;;5117226;28;20627;-46
2023/05/08 06:10:54;;;;;;;13.53;11.43;;;15.90;99.90;;;;;;5117285;27;20213;-46
2023/05/08 06:13:19;;;;;;;16.47;12.67;;;15.90;99.90;;;;;;5116705;28;20284;-46
2023/05/08 06:15:45;;;;;;;14.17;12.00;;;15.90;99.90;;;;;;5117047;28;20246;-47
2023/05/08 06:18:11;;;;;;;14.80;12.23;;;16.00;99.90;;;;;;5116788;28;20703;-47
2023/05/08 06:20:37;;;;;;;15.90;12.33;;;16.00;99.90;;;;;;5116968;28;20174;-46
2023/05/08 06:23:03;;;;;;;12.20;10.63;;;16.10;99.90;;;;;;5098250;28;20194;-45
2023/05/08 06:25:29;;;;;;;13.07;11.07;;;16.10;99.90;;;;;;5116956;28;20595;-47
2023/05/08 06:27:56;;;;;;;14.90;11.77;;;16.20;99.90;;;;;;5116866;28;20524;-46
2023/05/08 06:30:22;;;;;;;12.90;11.53;;;16.40;99.90;;;;;;5115897;28;20186;-46
2023/05/08 06:32:47;;;;;;;12.37;10.40;;;16.60;99.90;;;;;;5116616;28;20197;-48
2023/05/08 06:35:17;;;;;;;12.63;11.30;;;16.80;99.90;;;;;;5116844;28;20579;-45
2023/05/08 06:37:43;;;;;;;13.27;11.37;;;17.10;99.90;;;;;;5116034;28;20221;-46
2023/05/08 06:40:09;;;;;;;12.73;10.70;;;17.30;99.90;;;;;;5116243;28;20655;-46
2023/05/08 06:42:35;;;;;;;11.50;9.57;;;17.60;99.90;;;;;;5116115;28;20717;-45
2023/05/08 06:45:01;;;;;;;10.80;9.23;;;17.80;99.90;;;;;;5116692;28;20253;-47
2023/05/08 06:47:27;;;;;;;10.30;9.20;;;17.90;99.90;;;;;;5116216;28;20206;-45
2023/05/08 06:49:52;;;;;;;10.03;8.97;;;18.00;99.90;;;;;;5116034;28;20185;-47
2023/05/08 06:52:19;;;;;;;8.47;7.57;;;18.20;99.90;;;;;;5116131;28;20254;-47
2023/05/08 06:54:45;;;;;;;8.63;7.23;;;18.20;99.90;;;;;;5115909;28;20174;-46
2023/05/08 06:57:13;;;;;;;7.50;6.70;;;18.40;99.90;;;;;;5115650;28;20199;-46
2023/05/08 06:59:39;;;;;;;9.30;6.90;;;18.50;99.90;;;;;;5116422;28;20173;-48
2023/05/08 07:02:04;;;;;;;8.17;6.40;;;18.70;99.90;;;;;;5116385;28;20166;-45
2023/05/08 07:04:30;;;;;;;6.63;5.20;;;18.90;99.90;;;;;;5116018;28;20171;-46
2023/05/08 07:06:56;;;;;;;4.90;4.30;;;19.00;99.90;;;;;;5115709;28;20235;-45
2023/05/08 07:09:21;;;;;;;5.93;4.47;;;19.00;99.90;;;;;;5115587;28;20269;-47
2023/05/08 07:11:47;;;;;;;5.70;4.30;;;19.10;99.90;;;;;;5115330;28;20326;-46
2023/05/08 07:14:13;;;;;;;6.13;4.50;;;19.00;99.90;;;;;;5115158;28;20198;-46
2023/05/08 07:16:38;;;;;;;5.07;4.57;;;19.00;99.90;;;;;;5115182;28;20185;-46
2023/05/08 07:19:04;;;;;;;6.87;4.67;;;19.00;99.90;;;;;;5115407;28;20201;-45
2023/05/08 07:21:30;;;;;;;4.53;3.87;;;19.20;99.90;;;;;;5115129;28;20196;-46
2023/05/08 07:23:55;;;;;;;4.00;3.33;;;19.50;99.90;;;;;;5115569;28;20190;-44
2023/05/08 07:26:21;;;;;;;3.97;3.30;;;19.80;99.90;;;;;;5115301;28;20272;-47
2023/05/08 07:28:47;;;;;;;3.40;3.10;;;19.80;99.90;;;;;;5115293;28;20173;-46
2023/05/08 07:31:13;;;;;;;4.00;3.60;;;19.80;99.90;;;;;;5114938;28;20203;-46
2023/05/08 07:33:38;;;;;;;4.17;3.77;;;19.90;99.90;;;;;;5114746;28;20198;-45
2023/05/08 07:36:04;;;;;;;8.23;3.60;;;19.80;99.90;;;;;;5114960;28;20201;-46
2023/05/08 07:38:30;;;;;;;5.70;3.47;;;19.90;99.90;;;;;;5114995;28;20228;-46
2023/05/08 07:40:56;;;;;;;8.50;3.90;;;19.80;99.90;;;;;;5113403;28;20174;-46
2023/05/08 07:43:22;;;;;;;4.43;3.47;;;19.70;99.90;;;;;;5113881;28;20210;-47
2023/05/08 07:45:48;;;;;;;4.00;3.60;;;19.70;99.90;;;;;;5114610;28;20178;-45
2023/05/08 07:48:13;;;;;;;5.37;3.93;;;19.80;99.90;;;;;;5114701;28;20517;-45
2023/05/08 07:50:39;;;;;;;4.70;3.40;;;19.80;99.90;;;;;;5114618;28;20178;-46
2023/05/08 07:53:05;;;;;;;6.90;3.40;;;19.80;99.90;;;;;;5115036;28;20597;-44
2023/05/08 07:55:31;;;;;;;4.73;3.47;;;19.90;99.90;;;;;;5115243;28;20219;-47
2023/05/08 07:57:57;;;;;;;5.03;3.60;;;20.00;99.90;;;;;;5114584;28;20209;-47
2023/05/08 08:00:23;;;;;;;7.90;3.67;;;20.00;99.90;;;;;;5114600;28;20205;-46
2023/05/08 08:02:49;;;;;;;5.10;3.87;;;20.00;99.90;;;;;;5114293;28;20217;-46
2023/05/08 08:05:14;;;;;;;4.37;3.97;;;20.10;99.90;;;;;;5114309;28;20229;-46
2023/05/08 08:07:40;;;;;;;6.10;4.40;;;20.20;99.90;;;;;;5114491;28;20187;-46
2023/05/08 08:10:07;;;;;;;5.70;4.80;;;20.30;99.90;;;;;;5114433;28;20186;-46
2023/05/08 08:12:32;;;;;;;4.73;4.33;;;20.40;99.90;;;;;;5112837;28;20205;-46
2023/05/08 08:14:58;;;;;;;5.17;4.67;;;20.40;99.90;;;;;;5114395;28;20174;-48
2023/05/08 08:17:23;;;;;;;4.80;4.30;;;20.60;99.90;;;;;;5114325;28;20613;-48
2023/05/08 08:19:49;;;;;;;5.70;3.83;;;20.70;99.90;;;;;;5114320;28;20239;-46
2023/05/08 08:22:15;;;;;;;7.20;4.50;;;21.00;99.90;;;;;;5114170;28;20194;-46
2023/05/08 08:24:40;;;;;;;4.27;3.27;;;21.20;99.90;;;;;;5114241;28;20170;-47
2023/05/08 08:27:07;;;;;;;3.50;3.20;;;21.40;99.90;;;;;;5114216;28;20185;-47
2023/05/08 08:29:32;;;;;;;5.17;3.20;;;21.60;99.90;;;;;;5114610;28;20186;-47
2023/05/08 08:31:59;;;;;;;4.93;4.03;;;21.70;99.90;;;;;;5113828;28;20175;-48
2023/05/08 08:34:25;;;;;;;7.03;3.47;;;21.90;99.90;;;;;;5113841;28;20217;-47
2023/05/08 08:36:50;;;;;;;9.23;4.27;;;22.00;99.90;;;;;;5113813;28;20241;-47
2023/05/08 08:39:16;;;;;;;4.03;3.20;;;22.10;99.90;;;;;;5114093;28;20189;-47
2023/05/08 08:41:41;;;;;;;4.67;3.77;;;22.20;99.90;;;;;;5113868;28;20610;-47
2023/05/08 08:44:07;;;;;;;4.37;3.40;;;22.20;99.90;;;;;;5113773;28;20190;-48
2023/05/08 08:46:34;;;;;;;5.13;3.93;;;22.30;99.90;;;;;;5114017;28;20205;-47
2023/05/08 08:49:03;;;;;;;4.53;4.10;;;22.40;99.90;;;;;;5113082;28;20185;-47
2023/05/08 08:51:44;;;;;;;4.97;3.73;;;22.50;99.90;;;;;;5113668;28;20202;-47
2023/05/08 08:54:23;;;;;;;5.00;4.23;;;22.50;99.90;;;;;;5116411;28;20273;-47
2023/05/08 08:56:50;;;;;;;4.60;4.10;;;22.60;99.90;;;;;;5118102;28;20247;-47
2023/05/08 08:59:17;;;;;;;4.60;4.20;;;22.70;99.90;;;;;;5117820;28;20174;-47
2023/05/08 09:01:52;;;;;;;7.77;4.20;;;22.90;99.90;;;;;;5117703;28;20614;-48
2023/05/08 09:04:18;;;;;;;4.87;4.30;;;23.00;99.90;;;;;;5117822;28;20170;-47
2023/05/08 09:06:44;;;;;;;6.93;3.70;;;23.10;99.90;;;;;;5117967;28;20630;-47
2023/05/08 09:09:12;;;;;;;5.33;4.03;;;23.30;99.90;;;;;;5117909;28;20170;-46
2023/05/08 09:11:39;;;;;;;3.57;3.27;;;23.40;99.90;;;;;;5116377;28;20650;-47
2023/05/08 09:14:04;;;;;;;4.37;3.33;;;23.50;99.90;;;;;;5117484;28;20194;-47
2023/05/08 09:16:30;;;;;;;5.27;4.13;;;23.70;99.90;;;;;;5117652;28;20178;-46
2023/05/08 09:18:56;;;;;;;4.83;4.37;;;23.80;99.90;;;;;;5117723;28;20188;-47
2023/05/08 09:21:22;;;;;;;4.30;3.90;;;23.80;99.90;;;;;;5117627;28;20189;-49
2023/05/08 09:23:58;;;;;;;4.20;3.83;;;23.60;99.90;;;;;;5117254;28;20289;-48
2023/05/08 09:26:31;;;;;;;6.33;4.10;;;23.30;99.90;;;;;;5117349;28;20180;-47
2023/05/08 09:29:09;;;;;;;5.53;4.27;;;23.40;99.90;;;;;;5117629;28;20174;-47
2023/05/08 09:31:38;;;;;;;4.73;4.07;;;23.50;99.90;;;;;;5117478;28;20212;-48
2023/05/08 09:34:06;;;;;;;4.63;4.23;;;23.70;99.90;;;;;;5117102;28;20228;-47
2023/05/08 09:36:33;;;;;;;5.50;4.73;;;23.70;99.90;;;;;;5116811;28;20263;-48
2023/05/08 09:39:00;;;;;;;5.70;4.70;;;23.70;99.90;;;;;;5117443;28;20602;-48
2023/05/08 09:41:26;;;;;;;5.17;4.00;;;23.80;99.90;;;;;;5117352;28;20207;-48
2023/05/08 09:44:11;;;;;;;5.50;4.40;;;23.90;99.90;;;;;;5117266;28;20273;-47
2023/05/08 09:46:37;;;;;;;4.60;4.20;;;24.10;99.90;;;;;;5116920;28;20226;-48
2023/05/08 09:49:03;;;;;;;4.77;4.27;;;24.30;99.90;;;;;;5117153;28;20214;-48
2023/05/08 09:51:30;;;;;;;4.93;3.97;;;24.10;99.90;;;;;;5116863;28;20174;-48
2023/05/08 09:53:58;;;;;;;5.00;4.50;;;24.10;99.90;;;;;;5120075;28;20194;-48
2023/05/08 09:56:31;;;;;;;4.90;4.33;;;24.20;99.90;;;;;;5120888;28;20186;-47
2023/05/08 09:58:57;;;;;;;4.77;4.30;;;24.10;99.90;;;;;;5120816;28;20557;-48
2023/05/08 10:01:30;;;;;;;5.47;3.73;;;24.00;99.90;;;;;;5117036;28;20178;-49
2023/05/08 10:03:56;;;;;;;5.03;4.30;;;24.00;99.90;;;;;;5116712;28;20194;-48
2023/05/08 10:06:21;;;;;;;4.57;4.17;;;24.10;99.90;;;;;;5116149;28;20185;-47
2023/05/08 10:08:48;;;;;;;7.37;4.93;;;24.00;99.90;;;;;;5116529;28;20175;-48
2023/05/08 10:11:18;;;;;;;4.90;4.33;;;24.10;99.90;;;;;;5116770;28;20170;-47
2023/05/08 10:13:45;;;;;;;4.57;4.17;;;24.10;99.90;;;;;;5116368;28;20190;-47
2023/05/08 10:16:15;;;;;;;4.83;3.67;;;24.00;99.90;;;;;;5116636;28;20209;-48
2023/05/08 10:18:47;;;;;;;4.17;3.80;;;23.80;99.90;;;;;;5116794;28;20201;-47
2023/05/08 10:21:14;;;;;;;6.70;4.00;;;24.00;99.90;;;;;;5116941;28;20184;-47
2023/05/08 10:23:41;;;;;;;4.13;3.83;;;24.20;99.90;;;;;;5116447;28;20231;-47
2023/05/08 10:26:15;;;;;;;5.10;3.10;;;24.40;99.90;;;;;;5117098;28;20192;-48
2023/05/08 10:28:54;;;;;;;3.37;3.07;;;24.30;99.90;;;;;;5117054;28;20162;-48
2023/05/08 10:31:23;;;;;;;3.95;3.55;;;24.50;99.90;;;;;;5116881;28;20614;-48
2023/05/08 10:33:53;;;;;;;3.63;3.33;;;24.70;99.90;;;;;;5116814;28;20335;-48
2023/05/08 10:36:20;;;;;;;3.15;2.85;;;25.00;99.90;;;;;;5116511;28;20190;-48
2023/05/08 10:38:46;;;;;;;5.88;3.17;;;25.20;99.90;;;;;;5115980;28;20217;-49
2023/05/08 10:41:12;;;;;;;4.95;3.22;;;25.50;99.90;;;;;;5116002;28;20182;-47
2023/05/08 10:43:41;;;;;;;4.85;3.13;;;25.70;99.90;;;;;;5115832;28;20194;-49
2023/05/08 10:46:15;;;;;;;4.60;2.72;;;25.90;99.90;;;;;;5115857;28;20174;-48
2023/05/08 10:48:59;;;;;;;3.30;3.00;;;26.10;99.90;;;;;;5115793;28;20162;-48
2023/05/08 10:51:33;;;;;;;2.80;2.60;;;26.20;99.90;;;;;;5116063;28;20551;-48
2023/05/08 10:54:12;;;;;;;3.42;2.80;;;26.20;99.90;;;;;;5115742;28;20197;-48
2023/05/08 10:56:38;;;;;;;14.00;13.10;;;26.20;99.90;;;;;;5115495;28;20676;-48
2023/05/08 10:59:05;;;;;;;2.92;2.67;;;26.20;99.90;;;;;;5115808;28;20182;-48
2023/05/08 11:01:30;;;;;;;3.53;2.35;;;26.00;99.90;;;;;;5115823;28;20170;-48
2023/05/08 11:03:56;;;;;;;4.07;2.30;;;25.80;99.90;;;;;;5115350;28;20204;-48
2023/05/08 11:06:42;;;;;;;2.28;2.08;;;25.90;99.90;;;;;;5115668;28;20181;-49
2023/05/08 11:09:08;;;;;;;1.80;1.70;;;26.00;99.90;;;;;;5115098;28;20271;-48
2023/05/08 11:11:38;;;;;;;4.18;2.35;;;26.10;99.90;;;;;;5115212;28;20615;-48
2023/05/08 11:14:06;;;;;;;3.28;2.10;;;26.40;99.90;;;;;;5115045;28;20226;-48
2023/05/08 11:16:53;;;;;;;10.43;9.60;;;26.60;99.90;;;;;;5114345;28;20202;-49
2023/05/08 11:19:23;;;;;;;6.18;5.78;;;26.70;99.90;;;;;;5115145;28;20206;-48
2023/05/08 11:22:22;;;;;;;2.92;2.17;;;26.30;99.90;;;;;;5115255;28;20249;-48
2023/05/08 11:24:58;;;;;;;3.25;2.40;;;26.10;99.90;;;;;;5115310;28;20583;-49
2023/05/08 11:27:35;;;;;;;2.50;2.30;;;25.90;99.90;;;;;;5115005;28;20174;-48
2023/05/08 11:30:31;;;;;;;2.78;2.58;;;25.90;99.90;;;;;;5115222;28;20181;-49
2023/05/08 11:33:03;;;;;;;3.67;2.38;;;26.00;99.90;;;;;;5114922;28;20693;-48
2023/05/08 11:35:47;;;;;;;2.40;2.20;;;26.20;99.90;;;;;;5115300;28;20238;-48
2023/05/08 11:38:27;;;;;;;2.45;2.20;;;26.40;99.90;;;;;;5115112;28;20278;-48
2023/05/08 11:40:54;;;;;;;2.20;2.00;;;26.50;99.90;;;;;;5114925;28;20170;-48
2023/05/08 11:43:32;;;;;;;3.15;2.00;;;26.60;99.90;;;;;;5114921;28;20201;-48
2023/05/08 11:46:05;;;;;;;4.20;2.13;;;26.60;99.90;;;;;;5114982;28;20197;-48
2023/05/08 11:48:32;;;;;;;2.10;1.90;;;26.60;99.90;;;;;;5114870;28;20166;-49
2023/05/08 11:51:02;;;;;;;2.03;1.85;;;26.60;99.90;;;;;;5114563;28;20260;-49
2023/05/08 11:53:31;;;;;;;4.32;2.08;;;26.70;99.90;;;;;;5114971;28;20198;-48
2023/05/08 11:55:58;;;;;;;1.90;1.70;;;26.70;99.90;;;;;;5114489;28;20188;-49
2023/05/08 11:58:24;;;;;;;3.67;1.98;;;26.70;99.90;;;;;;5114252;28;20721;-49
2023/05/08 12:00:49;;;;;;;4.07;3.53;;;26.80;99.90;;;;;;5114620;28;20257;-47
2023/05/08 12:03:17;;;;;;;4.38;3.25;;;26.70;99.90;;;;;;5114008;28;20541;-49
2023/05/08 12:05:44;;;;;;;4.03;3.30;;;26.60;99.90;;;;;;5114514;28;20698;-49
2023/05/08 12:08:11;;;;;;;3.15;2.95;;;26.50;99.90;;;;;;5114199;28;20642;-50
2023/05/08 12:10:53;;;;;;;17.73;16.63;;;26.40;99.90;;;;;;5114336;28;20257;-49
2023/05/08 12:13:24;;;;;;;1.10;1.10;;;26.40;99.90;;;;;;5114117;28;20205;-49
2023/05/08 12:15:52;;;;;;;1.45;1.35;;;26.30;99.90;;;;;;5113682;28;20170;-49
2023/05/08 12:18:19;;;;;;;2.17;1.38;;;26.20;99.90;;;;;;5113990;28;20313;-48
2023/05/08 12:20:45;;;;;;;1.52;1.42;;;26.10;99.90;;;;;;5113681;28;20173;-46
2023/05/08 12:23:11;;;;;;;1.75;1.50;;;25.90;99.90;;;;;;5114077;28;20201;-46
2023/05/08 12:25:38;;;;;;;2.63;1.70;;;25.60;99.90;;;;;;5114330;28;20509;-45
2023/05/08 12:28:08;;;;;;;2.97;1.70;;;25.20;99.90;;;;;;5113717;28;20171;-45
2023/05/08 12:30:34;;;;;;;2.97;1.83;;;24.80;99.90;;;;;;5114000;28;20261;-43
2023/05/08 12:33:01;;;;;;;3.58;2.50;;;24.30;99.90;;;;;;5114058;28;20566;-44
2023/05/08 12:35:27;;;;;;;3.72;1.70;;;23.90;99.90;;;;;;5114444;28;20177;-44
2023/05/08 12:37:53;;;;;;;1.88;1.42;;;23.50;99.90;;;;;;5113571;28;20229;-44
2023/05/08 12:40:31;;;;;;;2.20;1.80;;;23.10;99.90;;;;;;5114143;28;20210;-44
2023/05/08 12:42:59;;;;;;;3.37;1.93;;;22.80;99.90;;;;;;5114063;28;20419;-43
2023/05/08 12:45:43;;;;;;;4.37;2.33;;;22.40;99.90;;;;;;5114011;28;20186;-45